Time;durP1;ratioP1;P1;durP2;ratioP2;P2;SDS_P1;SDS_P2;PMS_P1;PMS_P2;Temp;Humidity;BMP_temperature;BMP_pressure;BME280_temperature;BME280_humidity;BME280_pressure;Samples;Min_cycle;Max_cycle;Signal;HPM_P1;HPM_P2
2021/05/12 00:00:22;;;;;;;0.60;0.60;;;11.90;99.90;;;;;;5067097;28;20024;-57
2021/05/12 00:02:49;;;;;;;0.82;0.80;;;11.90;99.90;;;;;;5066924;28;20479;-57
2021/05/12 00:05:17;;;;;;;3.00;0.90;;;11.70;99.90;;;;;;5065640;28;20025;-57
2021/05/12 00:07:43;;;;;;;0.77;0.70;;;11.80;99.90;;;;;;5067122;28;20029;-57
2021/05/12 00:10:11;;;;;;;0.70;0.70;;;11.80;99.90;;;;;;5066491;28;20573;-57
2021/05/12 00:12:38;;;;;;;0.60;0.60;;;11.90;99.90;;;;;;5046185;28;20033;-57
2021/05/12 00:15:06;;;;;;;0.60;0.60;;;12.00;99.90;;;;;;5051392;28;20016;-57
2021/05/12 00:17:34;;;;;;;1.40;0.73;;;12.10;99.90;;;;;;5066699;28;20059;-57
2021/05/12 00:20:01;;;;;;;0.63;0.52;;;12.00;99.90;;;;;;5066535;28;20089;-57
2021/05/12 00:22:43;;;;;;;1.27;0.50;;;12.10;99.90;;;;;;5066935;28;20526;-57
2021/05/12 00:25:10;;;;;;;0.95;0.60;;;12.00;99.90;;;;;;5050831;28;20017;-57
2021/05/12 00:27:37;;;;;;;0.50;0.50;;;11.90;99.90;;;;;;5046534;28;20025;-57
2021/05/12 00:30:05;;;;;;;0.68;0.68;;;11.90;99.90;;;;;;5046979;28;20411;-57
2021/05/12 00:32:31;;;;;;;0.60;0.60;;;11.90;99.90;;;;;;5046597;28;20050;-57
2021/05/12 00:34:57;;;;;;;0.50;0.50;;;11.90;99.90;;;;;;5045563;28;20056;-57
2021/05/12 00:37:23;;;;;;;0.57;0.57;;;12.20;99.90;;;;;;5046828;28;20056;-57
2021/05/12 00:39:48;;;;;;;1.70;0.60;;;12.30;99.90;;;;;;5046049;28;20060;-57
2021/05/12 00:42:15;;;;;;;0.70;0.70;;;12.50;99.90;;;;;;5065585;28;20016;-57
2021/05/12 00:44:41;;;;;;;0.77;0.60;;;12.40;99.90;;;;;;5066077;28;20032;-57
2021/05/12 00:47:07;;;;;;;0.60;0.60;;;12.30;99.90;;;;;;5067230;28;20549;-57
2021/05/12 00:49:34;;;;;;;0.50;0.50;;;12.30;99.90;;;;;;5065908;28;20036;-57
2021/05/12 00:52:00;;;;;;;0.50;0.50;;;12.20;99.90;;;;;;5047277;28;20074;-57
2021/05/12 00:54:26;;;;;;;0.57;0.57;;;12.20;99.90;;;;;;5046130;28;20139;-57
2021/05/12 00:56:52;;;;;;;0.98;0.70;;;12.10;99.90;;;;;;5046402;28;20582;-57
2021/05/12 00:59:18;;;;;;;0.65;0.65;;;11.90;99.90;;;;;;5046171;28;20039;-57
2021/05/12 01:01:44;;;;;;;0.63;0.63;;;11.80;99.90;;;;;;5045722;28;20492;-57
2021/05/12 01:04:10;;;;;;;0.60;0.60;;;11.60;99.90;;;;;;5046090;28;20055;-57
2021/05/12 01:06:39;;;;;;;1.00;0.90;;;11.50;99.90;;;;;;5046766;28;20036;-57
2021/05/12 01:09:06;;;;;;;0.70;0.60;;;11.60;99.90;;;;;;5046179;28;20721;-57
2021/05/12 01:11:32;;;;;;;0.40;0.40;;;11.50;99.90;;;;;;5057799;28;20035;-57
2021/05/12 01:13:59;;;;;;;0.60;0.60;;;11.70;99.90;;;;;;5066197;28;20085;-57
2021/05/12 01:16:25;;;;;;;1.02;0.80;;;11.70;99.90;;;;;;5066052;28;20035;-57
2021/05/12 01:18:51;;;;;;;0.70;0.70;;;11.60;99.90;;;;;;5066992;28;20036;-57
2021/05/12 01:21:17;;;;;;;1.75;0.77;;;11.70;99.90;;;;;;5068788;28;20096;-57
2021/05/12 01:23:45;;;;;;;0.75;0.50;;;11.70;99.90;;;;;;5069850;28;20067;-57
2021/05/12 01:26:18;;;;;;;0.63;0.60;;;11.60;99.90;;;;;;5070246;28;20099;-57
2021/05/12 01:28:47;;;;;;;0.60;0.60;;;11.60;99.90;;;;;;5069799;28;20020;-57
2021/05/12 01:31:31;;;;;;;0.50;0.50;;;11.70;99.90;;;;;;5061598;28;20567;-57
2021/05/12 01:33:57;;;;;;;1.08;0.50;;;11.60;99.90;;;;;;5049798;28;20029;-57
2021/05/12 01:36:24;;;;;;;0.88;0.60;;;11.60;99.90;;;;;;5049428;28;20029;-57
2021/05/12 01:38:50;;;;;;;1.38;0.60;;;11.70;99.90;;;;;;5049554;28;20442;-57
2021/05/12 01:41:20;;;;;;;1.20;0.80;;;11.70;99.90;;;;;;5054286;28;20052;-57
2021/05/12 01:43:46;;;;;;;1.23;0.70;;;11.70;99.90;;;;;;5068297;28;20036;-57
2021/05/12 01:46:12;;;;;;;1.75;0.52;;;11.80;99.90;;;;;;5069831;28;20032;-57
2021/05/12 01:48:39;;;;;;;0.57;0.45;;;11.80;99.90;;;;;;5069002;28;20055;-57
2021/05/12 01:51:06;;;;;;;0.60;0.60;;;11.80;99.90;;;;;;5066188;28;20127;-58
2021/05/12 01:53:32;;;;;;;1.27;0.70;;;11.90;99.90;;;;;;5049140;28;20089;-57
2021/05/12 01:55:58;;;;;;;0.82;0.70;;;11.80;99.90;;;;;;5049638;28;20052;-57
2021/05/12 01:58:24;;;;;;;0.75;0.63;;;11.70;99.90;;;;;;5056651;28;20056;-55
2021/05/12 02:00:52;;;;;;;0.65;0.65;;;11.60;99.90;;;;;;5068470;28;20027;-55
2021/05/12 02:03:18;;;;;;;0.60;0.60;;;11.60;99.90;;;;;;5069160;28;20093;-55
2021/05/12 02:05:45;;;;;;;0.50;0.50;;;11.60;99.90;;;;;;5069171;28;20033;-55
2021/05/12 02:08:13;;;;;;;0.50;0.50;;;11.50;99.90;;;;;;5064360;28;20048;-55
2021/05/12 02:10:41;;;;;;;0.95;0.50;;;11.50;99.90;;;;;;5048462;28;20047;-55
2021/05/12 02:13:07;;;;;;;0.57;0.52;;;11.60;99.90;;;;;;5064374;28;20032;-55
2021/05/12 02:15:33;;;;;;;0.40;0.40;;;11.70;99.90;;;;;;5069370;28;20025;-54
2021/05/12 02:17:59;;;;;;;0.90;0.50;;;11.70;99.90;;;;;;5068845;28;20025;-57
2021/05/12 02:20:31;;;;;;;0.70;0.65;;;11.70;99.90;;;;;;5068001;28;20554;-57
2021/05/12 02:22:58;;;;;;;1.55;0.50;;;11.70;99.90;;;;;;5056882;28;20031;-57
2021/05/12 02:25:24;;;;;;;1.30;0.70;;;11.70;99.90;;;;;;5048934;28;20571;-57
2021/05/12 02:27:50;;;;;;;1.10;0.70;;;11.60;99.90;;;;;;5048768;28;20033;-57
2021/05/12 02:30:16;;;;;;;1.10;0.70;;;11.50;99.90;;;;;;5049133;28;20029;-57
2021/05/12 02:32:42;;;;;;;0.60;0.60;;;11.50;99.90;;;;;;5047813;28;20037;-57
2021/05/12 02:35:09;;;;;;;0.70;0.50;;;11.60;99.90;;;;;;5048920;28;20069;-57
2021/05/12 02:37:36;;;;;;;0.50;0.50;;;11.50;99.90;;;;;;5048049;28;20021;-57
2021/05/12 02:40:05;;;;;;;0.65;0.65;;;11.50;99.90;;;;;;5048876;28;20136;-57
2021/05/12 02:42:31;;;;;;;0.55;0.55;;;11.60;99.90;;;;;;5048067;28;20025;-57
2021/05/12 02:44:56;;;;;;;0.50;0.50;;;11.70;99.90;;;;;;5048655;28;20112;-57
2021/05/12 02:47:22;;;;;;;0.60;0.60;;;11.80;99.90;;;;;;5047769;28;20033;-57
2021/05/12 02:49:48;;;;;;;0.80;0.80;;;11.80;99.90;;;;;;5059880;28;20040;-57
2021/05/12 02:52:14;;;;;;;0.93;0.70;;;11.70;99.90;;;;;;5063413;28;20036;-57
2021/05/12 02:54:40;;;;;;;1.05;0.73;;;11.80;99.90;;;;;;5048167;28;20458;-57
2021/05/12 02:57:06;;;;;;;0.63;0.60;;;11.70;99.90;;;;;;5048486;28;20390;-57
2021/05/12 02:59:31;;;;;;;2.30;0.88;;;11.70;99.90;;;;;;5048217;28;20036;-57
2021/05/12 03:01:57;;;;;;;0.80;0.68;;;11.60;99.90;;;;;;5057451;28;20032;-57
2021/05/12 03:04:23;;;;;;;3.95;0.77;;;11.60;99.90;;;;;;5048189;28;20101;-57
2021/05/12 03:06:49;;;;;;;0.80;0.80;;;11.50;99.90;;;;;;5048196;28;20033;-57
2021/05/12 03:09:14;;;;;;;1.13;0.73;;;11.40;99.90;;;;;;5047535;28;20029;-56
2021/05/12 03:11:40;;;;;;;0.98;0.70;;;11.40;99.90;;;;;;5047723;28;20435;-60
2021/05/12 03:14:08;;;;;;;1.50;0.80;;;11.40;99.90;;;;;;5048504;28;20029;-57
2021/05/12 03:16:35;;;;;;;0.88;0.80;;;11.30;99.90;;;;;;5047650;28;20688;-57
2021/05/12 03:19:00;;;;;;;0.80;0.80;;;11.30;99.90;;;;;;5048153;28;20406;-57
2021/05/12 03:21:26;;;;;;;0.80;0.80;;;11.30;99.90;;;;;;5048057;28;20033;-57
2021/05/12 03:23:52;;;;;;;0.70;0.70;;;11.10;99.90;;;;;;5059246;28;20032;-57
2021/05/12 03:26:19;;;;;;;0.80;0.80;;;11.20;99.90;;;;;;5068389;28;20502;-57
2021/05/12 03:28:45;;;;;;;0.60;0.60;;;11.40;99.90;;;;;;5067406;28;20031;-57
2021/05/12 03:31:12;;;;;;;0.73;0.73;;;11.50;99.90;;;;;;5065852;28;20033;-57
2021/05/12 03:33:38;;;;;;;0.93;0.70;;;11.60;99.90;;;;;;5066864;28;20578;-57
2021/05/12 03:36:05;;;;;;;0.70;0.70;;;11.50;99.90;;;;;;5066157;28;20074;-57
2021/05/12 03:38:31;;;;;;;1.27;0.60;;;11.40;99.90;;;;;;5067495;28;20067;-57
2021/05/12 03:40:57;;;;;;;2.65;0.63;;;11.40;99.90;;;;;;5062498;28;20237;-56
2021/05/12 03:43:23;;;;;;;0.60;0.60;;;11.30;99.90;;;;;;5047307;28;20032;-57
2021/05/12 03:45:49;;;;;;;0.57;0.57;;;11.30;99.90;;;;;;5067015;28;20032;-57
2021/05/12 03:48:15;;;;;;;0.60;0.60;;;11.40;99.90;;;;;;5066345;28;20084;-57
2021/05/12 03:50:41;;;;;;;4.63;1.00;;;11.30;99.90;;;;;;5064869;28;20029;-57
2021/05/12 03:53:07;;;;;;;0.50;0.50;;;11.30;99.90;;;;;;5047459;28;20035;-57
2021/05/12 03:55:34;;;;;;;0.80;0.73;;;11.20;99.90;;;;;;5046981;28;20029;-56
2021/05/12 03:58:00;;;;;;;0.60;0.60;;;11.10;99.90;;;;;;5047521;28;20025;-57
2021/05/12 04:00:26;;;;;;;0.75;0.63;;;11.10;99.90;;;;;;5047217;28;20130;-57
2021/05/12 04:02:51;;;;;;;0.52;0.52;;;11.20;99.90;;;;;;5046729;28;20031;-57
2021/05/12 04:05:17;;;;;;;0.65;0.65;;;11.20;99.90;;;;;;5047771;28;20033;-57
2021/05/12 04:07:43;;;;;;;0.82;0.75;;;11.10;99.90;;;;;;5046777;28;20025;-57
2021/05/12 04:10:10;;;;;;;1.05;0.90;;;11.00;99.90;;;;;;5047106;28;20095;-57
2021/05/12 04:12:36;;;;;;;1.20;1.10;;;11.00;99.90;;;;;;5046635;28;20064;-56
2021/05/12 04:15:04;;;;;;;1.40;1.30;;;10.90;99.90;;;;;;5046758;28;20512;-57
2021/05/12 04:17:29;;;;;;;2.58;1.27;;;10.90;99.90;;;;;;5046224;28;20368;-57
2021/05/12 04:19:55;;;;;;;2.58;1.42;;;10.90;99.90;;;;;;5046821;28;20723;-56
2021/05/12 04:22:21;;;;;;;1.40;1.30;;;11.00;99.90;;;;;;5046920;28;20071;-56
2021/05/12 04:24:47;;;;;;;1.77;1.10;;;10.90;99.90;;;;;;5047391;28;20691;-57
2021/05/12 04:27:13;;;;;;;1.80;1.13;;;10.90;99.90;;;;;;5053952;28;20098;-57
2021/05/12 04:29:39;;;;;;;1.20;1.10;;;10.80;99.90;;;;;;5065254;28;20063;-57
2021/05/12 04:32:06;;;;;;;1.10;1.00;;;10.60;99.90;;;;;;5066491;28;20074;-57
2021/05/12 04:34:33;;;;;;;1.17;1.05;;;10.60;99.90;;;;;;5066398;28;20043;-57
2021/05/12 04:36:58;;;;;;;1.48;1.30;;;10.60;99.90;;;;;;5065849;28;20103;-57
2021/05/12 04:39:24;;;;;;;1.73;1.50;;;10.60;99.90;;;;;;5066670;28;20107;-57
2021/05/12 04:41:50;;;;;;;1.50;1.40;;;10.40;99.90;;;;;;5067275;28;20048;-57
2021/05/12 04:44:16;;;;;;;1.27;1.17;;;10.40;99.90;;;;;;5066640;28;20399;-57
2021/05/12 04:46:44;;;;;;;1.52;1.23;;;10.40;99.90;;;;;;5064248;28;20122;-57
2021/05/12 04:49:11;;;;;;;1.05;0.95;;;10.30;99.90;;;;;;5066578;28;20111;-57
2021/05/12 04:51:37;;;;;;;1.15;1.05;;;10.40;99.90;;;;;;5065497;28;20424;-57
2021/05/12 04:54:06;;;;;;;1.30;1.10;;;10.30;99.90;;;;;;5065525;28;20127;-57
2021/05/12 04:56:33;;;;;;;1.67;1.00;;;10.50;99.90;;;;;;5064938;28;20020;-57
2021/05/12 04:58:59;;;;;;;1.70;0.90;;;10.50;99.90;;;;;;5061690;28;20037;-57
2021/05/12 05:01:25;;;;;;;1.90;1.40;;;10.60;99.90;;;;;;5065799;28;20071;-57
2021/05/12 05:03:51;;;;;;;1.92;1.40;;;10.50;99.90;;;;;;5066866;28;20036;-57
2021/05/12 05:06:17;;;;;;;1.20;1.10;;;10.50;99.90;;;;;;5067193;28;20446;-57
2021/05/12 05:08:43;;;;;;;1.35;1.25;;;10.60;99.90;;;;;;5064558;28;20024;-57
2021/05/12 05:11:08;;;;;;;1.80;1.45;;;10.60;99.90;;;;;;5065947;28;20020;-57
2021/05/12 05:13:35;;;;;;;1.50;1.40;;;10.70;99.90;;;;;;5065788;28;20020;-57
2021/05/12 05:16:01;;;;;;;1.42;1.33;;;10.70;99.90;;;;;;5065040;28;20024;-57
2021/05/12 05:18:27;;;;;;;1.60;1.50;;;10.70;99.90;;;;;;5051909;28;20124;-57
2021/05/12 05:20:56;;;;;;;1.95;1.60;;;10.80;99.90;;;;;;5065976;28;20064;-57
2021/05/12 05:23:22;;;;;;;2.30;2.00;;;10.80;99.90;;;;;;5066232;28;20051;-56
2021/05/12 05:25:50;;;;;;;3.15;1.88;;;10.80;99.90;;;;;;5066502;28;20387;-56
2021/05/12 05:28:15;;;;;;;2.10;1.90;;;10.70;99.90;;;;;;5064942;28;20395;-56
2021/05/12 05:30:41;;;;;;;2.25;1.70;;;10.70;99.90;;;;;;5064730;28;20032;-56
2021/05/12 05:33:07;;;;;;;1.88;1.65;;;10.50;99.90;;;;;;5066158;28;20037;-56
2021/05/12 05:35:33;;;;;;;1.85;1.60;;;10.60;99.90;;;;;;5065754;28;20570;-56
2021/05/12 05:37:58;;;;;;;1.60;1.50;;;10.40;99.90;;;;;;5066154;28;20066;-57
2021/05/12 05:40:24;;;;;;;3.42;1.50;;;10.40;99.90;;;;;;5066254;28;20024;-56
2021/05/12 05:42:58;;;;;;;1.33;1.23;;;10.20;99.90;;;;;;5065007;28;20033;-56
2021/05/12 05:45:25;;;;;;;1.30;1.20;;;10.30;99.90;;;;;;5065750;28;20031;-57
2021/05/12 05:47:51;;;;;;;1.23;1.13;;;10.60;99.90;;;;;;5064645;28;20032;-56
2021/05/12 05:50:17;;;;;;;1.60;1.33;;;10.70;99.90;;;;;;5066641;28;20487;-57
2021/05/12 05:52:43;;;;;;;1.55;1.45;;;10.80;99.90;;;;;;5063892;28;20040;-57
2021/05/12 05:55:09;;;;;;;1.48;1.38;;;10.90;99.90;;;;;;5058643;28;20024;-57
2021/05/12 05:57:35;;;;;;;1.45;1.35;;;10.90;99.90;;;;;;5065203;28;20024;-57
2021/05/12 06:00:02;;;;;;;1.60;1.40;;;11.00;99.90;;;;;;5065720;28;20414;-56
2021/05/12 06:02:28;;;;;;;2.88;1.90;;;11.10;99.90;;;;;;5065491;28;20119;-56
2021/05/12 06:04:53;;;;;;;2.35;1.67;;;11.10;99.90;;;;;;5066850;28;20095;-56
2021/05/12 06:07:19;;;;;;;2.00;1.90;;;11.10;99.90;;;;;;5069978;28;20029;-56
2021/05/12 06:09:44;;;;;;;2.40;1.83;;;11.10;99.90;;;;;;5068864;28;20032;-57
2021/05/12 06:12:11;;;;;;;3.53;2.25;;;11.30;99.90;;;;;;5049086;28;20795;-57
2021/05/12 06:14:37;;;;;;;2.20;1.80;;;11.30;99.90;;;;;;5047256;28;20251;-57
2021/05/12 06:17:02;;;;;;;2.13;1.85;;;11.30;99.90;;;;;;5052284;28;20123;-56
2021/05/12 06:19:28;;;;;;;2.05;1.85;;;11.30;99.90;;;;;;5068543;28;20024;-57
2021/05/12 06:21:54;;;;;;;2.53;1.73;;;11.30;99.90;;;;;;5069039;28;20356;-57
2021/05/12 06:24:20;;;;;;;2.30;2.10;;;11.30;99.90;;;;;;5069549;28;20640;-57
2021/05/12 06:26:49;;;;;;;1.92;1.77;;;11.40;99.90;;;;;;5068784;28;20025;-57
2021/05/12 06:29:15;;;;;;;1.70;1.60;;;11.30;99.90;;;;;;5068845;28;20024;-56
2021/05/12 06:31:40;;;;;;;2.58;1.23;;;11.40;99.90;;;;;;5051796;28;20533;-56
2021/05/12 06:34:06;;;;;;;1.77;1.48;;;11.50;99.90;;;;;;5049229;28;20025;-56
2021/05/12 06:36:32;;;;;;;1.88;1.75;;;11.30;99.90;;;;;;5061547;28;20116;-57
2021/05/12 06:38:59;;;;;;;1.70;1.60;;;11.30;99.90;;;;;;5068476;28;20111;-57
2021/05/12 06:41:29;;;;;;;2.03;1.77;;;11.40;99.90;;;;;;5066996;28;20067;-57
2021/05/12 06:43:56;;;;;;;2.00;1.33;;;11.50;99.90;;;;;;5067067;28;20035;-57
2021/05/12 06:46:22;;;;;;;3.67;1.70;;;11.60;99.90;;;;;;5063545;28;20039;-57
2021/05/12 06:48:48;;;;;;;1.52;1.40;;;11.60;99.90;;;;;;5047075;28;20033;-57
2021/05/12 06:51:13;;;;;;;1.30;1.20;;;11.50;99.90;;;;;;5047162;28;20029;-57
2021/05/12 06:53:40;;;;;;;4.55;2.08;;;11.60;99.90;;;;;;5046513;28;20029;-57
2021/05/12 06:56:07;;;;;;;1.73;1.63;;;11.30;99.90;;;;;;5065248;28;20025;-57
2021/05/12 06:58:34;;;;;;;1.33;1.23;;;11.50;99.90;;;;;;5059925;28;20332;-57
2021/05/12 07:01:00;;;;;;;1.50;1.40;;;11.50;99.90;;;;;;5046710;28;20021;-57
2021/05/12 07:03:27;;;;;;;1.50;1.40;;;11.50;99.90;;;;;;5064271;28;20060;-56
2021/05/12 07:05:53;;;;;;;1.30;1.20;;;11.40;99.90;;;;;;5066556;28;20420;-57
2021/05/12 07:08:20;;;;;;;1.20;1.10;;;11.40;99.90;;;;;;5061729;28;20108;-57
2021/05/12 07:10:48;;;;;;;1.30;1.00;;;11.60;99.90;;;;;;5054992;28;20032;-57
2021/05/12 07:13:13;;;;;;;1.15;1.05;;;11.70;99.90;;;;;;5054376;28;20122;-58
2021/05/12 07:15:39;;;;;;;1.50;1.00;;;11.60;99.90;;;;;;5064468;28;20024;-58
2021/05/12 07:18:06;;;;;;;0.60;0.60;;;11.70;99.90;;;;;;5064128;28;20033;-58
2021/05/12 07:20:32;;;;;;;0.75;0.75;;;11.70;99.90;;;;;;5064763;28;20538;-58
2021/05/12 07:23:10;;;;;;;1.60;1.02;;;11.80;99.90;;;;;;5067664;28;20067;-57
2021/05/12 07:25:37;;;;;;;0.70;0.70;;;11.90;99.90;;;;;;5067093;28;20028;-57
2021/05/12 07:28:04;;;;;;;1.00;0.88;;;12.00;99.90;;;;;;5049243;28;20029;-57
2021/05/12 07:30:30;;;;;;;1.80;0.70;;;12.00;99.90;;;;;;5055618;28;20580;-57
2021/05/12 07:32:56;;;;;;;0.70;0.70;;;12.10;99.90;;;;;;5066773;28;20033;-57
2021/05/12 07:35:22;;;;;;;0.85;0.80;;;12.10;99.90;;;;;;5065469;28;20498;-57
2021/05/12 07:37:48;;;;;;;1.27;1.20;;;12.00;99.90;;;;;;5067575;28;20036;-57
2021/05/12 07:40:14;;;;;;;1.38;0.80;;;12.10;99.90;;;;;;5047483;28;20036;-57
2021/05/12 07:42:41;;;;;;;1.98;0.80;;;12.20;99.90;;;;;;5050971;28;20029;-57
2021/05/12 07:45:07;;;;;;;1.65;0.70;;;12.30;99.90;;;;;;5051759;28;20024;-57
2021/05/12 07:47:33;;;;;;;0.70;0.70;;;12.30;99.90;;;;;;5068282;28;20481;-57
2021/05/12 07:49:59;;;;;;;1.25;0.88;;;12.30;99.90;;;;;;5069660;28;20021;-57
2021/05/12 07:52:24;;;;;;;0.80;0.80;;;12.30;99.90;;;;;;5067286;28;20035;-57
2021/05/12 07:54:50;;;;;;;0.75;0.75;;;12.30;99.90;;;;;;5053240;28;20037;-57
2021/05/12 07:57:16;;;;;;;2.38;0.85;;;12.40;99.90;;;;;;5078761;28;20032;-57
2021/05/12 07:59:43;;;;;;;0.98;0.82;;;12.20;99.90;;;;;;5080007;28;20082;-57
2021/05/12 08:02:09;;;;;;;1.65;0.80;;;12.30;99.90;;;;;;5065723;28;20103;-57
2021/05/12 08:04:35;;;;;;;0.90;0.80;;;12.20;99.90;;;;;;5065206;28;20028;-57
2021/05/12 08:07:01;;;;;;;1.40;0.70;;;12.30;99.90;;;;;;5069634;28;20063;-49
2021/05/12 08:09:27;;;;;;;1.45;0.70;;;12.30;99.90;;;;;;5080630;28;20032;-50
2021/05/12 08:11:54;;;;;;;1.70;0.80;;;12.50;99.90;;;;;;5084104;28;20028;-49
2021/05/12 08:14:20;;;;;;;1.23;0.68;;;12.70;99.90;;;;;;5069029;28;20033;-49
2021/05/12 08:16:47;;;;;;;0.63;0.57;;;12.80;99.90;;;;;;5066895;28;20074;-51
2021/05/12 08:19:13;;;;;;;0.60;0.60;;;12.80;99.90;;;;;;5066676;28;20020;-53
2021/05/12 08:21:40;;;;;;;2.80;0.77;;;12.80;99.90;;;;;;5066457;28;20028;-54
2021/05/12 08:24:06;;;;;;;1.75;0.60;;;12.70;99.90;;;;;;5066446;28;20067;-52
2021/05/12 08:26:32;;;;;;;0.50;0.50;;;12.70;99.90;;;;;;5066259;28;20040;-53
2021/05/12 08:29:00;;;;;;;2.63;0.70;;;12.70;99.90;;;;;;5060066;28;20086;-53
2021/05/12 08:31:27;;;;;;;2.53;0.70;;;12.50;99.90;;;;;;5063739;28;20055;-54
2021/05/12 08:33:53;;;;;;;2.05;0.82;;;12.70;99.90;;;;;;5061080;28;20039;-53
2021/05/12 08:36:19;;;;;;;1.25;0.60;;;12.80;99.90;;;;;;5066491;28;20654;-53
2021/05/12 08:38:48;;;;;;;0.90;0.60;;;12.70;99.90;;;;;;5066033;28;20030;-53
2021/05/12 08:41:18;;;;;;;1.50;0.47;;;12.80;99.90;;;;;;5066678;28;20025;-52
2021/05/12 08:43:44;;;;;;;1.05;0.60;;;13.00;99.90;;;;;;5065433;28;20047;-54
2021/05/12 08:46:12;;;;;;;0.50;0.50;;;12.70;99.90;;;;;;5066208;28;20031;-54
2021/05/12 08:48:38;;;;;;;0.73;0.47;;;12.70;99.90;;;;;;5066504;28;20097;-53
2021/05/12 08:51:06;;;;;;;1.45;0.70;;;12.70;99.90;;;;;;5066427;28;20060;-53
2021/05/12 08:53:32;;;;;;;0.40;0.40;;;12.60;99.90;;;;;;5066373;28;20012;-54
2021/05/12 08:56:01;;;;;;;1.15;0.57;;;12.70;99.90;;;;;;5066936;28;20024;-53
2021/05/12 08:58:28;;;;;;;1.10;0.65;;;12.50;99.90;;;;;;5055179;28;20033;-53
2021/05/12 09:00:55;;;;;;;1.15;0.60;;;12.50;99.90;;;;;;5064126;28;20025;-53
2021/05/12 09:03:24;;;;;;;0.85;0.40;;;12.70;99.90;;;;;;5065817;28;20111;-54
2021/05/12 09:05:50;;;;;;;1.63;0.55;;;12.90;99.90;;;;;;5065193;28;20490;-54
2021/05/12 09:08:16;;;;;;;0.70;0.60;;;12.90;99.90;;;;;;5066056;28;20028;-53
2021/05/12 09:10:42;;;;;;;0.43;0.40;;;13.00;99.90;;;;;;5065466;28;20033;-54
2021/05/12 09:13:08;;;;;;;0.73;0.43;;;13.10;99.90;;;;;;5065948;28;20059;-53
2021/05/12 09:15:34;;;;;;;0.88;0.50;;;13.10;99.90;;;;;;5063695;28;20041;-53
2021/05/12 09:18:05;;;;;;;1.38;0.60;;;13.10;99.90;;;;;;5066279;28;20020;-53
2021/05/12 09:20:39;;;;;;;0.55;0.32;;;13.10;99.90;;;;;;5064711;28;20515;-54
2021/05/12 09:23:11;;;;;;;0.90;0.50;;;13.00;99.90;;;;;;5065826;28;20044;-52
2021/05/12 09:25:39;;;;;;;1.20;0.40;;;12.90;99.90;;;;;;5064182;28;20461;-53
2021/05/12 09:28:15;;;;;;;0.57;0.40;;;13.00;99.90;;;;;;5063766;28;20021;-54
2021/05/12 09:30:42;;;;;;;2.40;0.60;;;13.10;99.90;;;;;;5065680;28;20400;-54
2021/05/12 09:33:11;;;;;;;1.20;0.52;;;13.10;99.90;;;;;;5052562;28;20028;-54
2021/05/12 09:35:42;;;;;;;1.38;0.50;;;13.20;99.90;;;;;;5046957;28;20036;-54
2021/05/12 09:38:32;;;;;;;1.10;0.55;;;13.30;99.90;;;;;;5064696;28;20025;-54
2021/05/12 09:41:03;;;;;;;1.05;0.50;;;13.40;99.90;;;;;;5065094;28;20036;-53
2021/05/12 09:43:30;;;;;;;0.40;0.40;;;13.50;99.90;;;;;;5067982;28;20025;-55
2021/05/12 09:46:22;;;;;;;1.25;0.50;;;13.50;99.90;;;;;;5066268;28;20039;-55
2021/05/12 09:48:59;;;;;;;1.60;0.43;;;13.50;99.90;;;;;;5068772;28;20067;-54
2021/05/12 09:51:46;;;;;;;1.02;0.57;;;13.50;99.90;;;;;;5066411;28;20025;-55
2021/05/12 09:54:18;;;;;;;1.30;0.70;;;13.60;99.90;;;;;;5059306;28;20813;-55
2021/05/12 09:56:56;;;;;;;2.38;0.60;;;13.60;99.90;;;;;;5056161;28;20036;-55
2021/05/12 09:59:26;;;;;;;2.53;0.95;;;13.50;99.90;;;;;;5049344;28;20063;-55
2021/05/12 10:01:54;;;;;;;1.27;0.70;;;13.50;99.90;;;;;;5049297;28;20474;-54
2021/05/12 10:04:35;;;;;;;0.50;0.50;;;13.70;99.90;;;;;;5050580;28;20025;-55
2021/05/12 10:07:16;;;;;;;0.85;0.40;;;13.70;99.90;;;;;;5068296;28;20104;-55
2021/05/12 10:09:43;;;;;;;1.02;0.50;;;13.90;99.90;;;;;;5058756;28;20449;-54
2021/05/12 10:12:14;;;;;;;3.50;0.73;;;14.00;99.90;;;;;;5068428;28;20028;-54
2021/05/12 10:14:42;;;;;;;1.27;0.60;;;13.80;99.90;;;;;;5068045;28;20029;-54
2021/05/12 10:17:11;;;;;;;1.42;0.60;;;14.10;99.90;;;;;;5069078;28;20021;-54
2021/05/12 10:19:38;;;;;;;0.32;0.32;;;14.30;99.90;;;;;;5065767;28;20032;-54
2021/05/12 10:22:05;;;;;;;1.52;0.45;;;14.50;99.90;;;;;;5066009;28;20036;-54
2021/05/12 10:24:33;;;;;;;1.05;0.50;;;14.50;99.90;;;;;;5068561;28;20054;-55
2021/05/12 10:27:03;;;;;;;0.32;0.32;;;14.30;99.90;;;;;;5053717;28;20041;-53
2021/05/12 10:29:30;;;;;;;0.73;0.40;;;14.40;99.90;;;;;;5075222;28;20227;-54
2021/05/12 10:31:56;;;;;;;1.25;0.60;;;14.50;99.90;;;;;;5052331;28;20053;-53
2021/05/12 10:34:39;;;;;;;0.68;0.50;;;14.60;99.90;;;;;;5060520;28;20060;-54
2021/05/12 10:37:19;;;;;;;0.65;0.50;;;14.80;99.90;;;;;;5067266;28;20431;-54
2021/05/12 10:39:48;;;;;;;0.55;0.40;;;14.70;99.90;;;;;;5067735;28;20099;-54
2021/05/12 10:42:33;;;;;;;0.63;0.38;;;14.70;99.90;;;;;;5066471;28;20624;-53
2021/05/12 10:45:01;;;;;;;0.30;0.30;;;14.90;99.90;;;;;;5069907;28;20043;-54
2021/05/12 10:47:37;;;;;;;0.52;0.40;;;15.10;99.90;;;;;;5065219;28;20128;-54
2021/05/12 10:50:03;;;;;;;0.93;0.82;;;15.10;99.90;;;;;;5047415;28;20032;-54
2021/05/12 10:52:30;;;;;;;2.08;0.60;;;15.10;99.90;;;;;;5053088;28;20024;-54
2021/05/12 10:54:55;;;;;;;0.45;0.43;;;15.20;99.90;;;;;;5067046;28;20086;-56
2021/05/12 10:57:44;;;;;;;0.40;0.40;;;15.30;99.90;;;;;;5060754;28;21423;-54
2021/05/12 11:00:10;;;;;;;0.40;0.40;;;15.50;99.90;;;;;;5065854;28;20021;-52
2021/05/12 11:03:05;;;;;;;0.50;0.47;;;15.60;99.90;;;;;;5066001;28;20032;-55
2021/05/12 11:06:01;;;;;;;0.30;0.30;;;15.60;99.90;;;;;;5062461;28;20047;-55
2021/05/12 11:08:27;;;;;;;0.65;0.40;;;15.90;99.90;;;;;;5066347;28;20041;-55
2021/05/12 11:11:05;;;;;;;1.42;0.57;;;15.80;99.90;;;;;;5066069;28;20386;-55
2021/05/12 11:13:34;;;;;;;1.70;0.60;;;15.80;99.90;;;;;;5066133;28;20033;-55
2021/05/12 11:16:03;;;;;;;0.93;0.45;;;15.80;99.90;;;;;;5066513;28;20024;-54
2021/05/12 11:18:52;;;;;;;0.50;0.40;;;15.70;99.90;;;;;;5066488;28;20036;-54
2021/05/12 11:21:19;;;;;;;1.45;0.60;;;15.80;99.90;;;;;;5063690;28;20037;-53
2021/05/12 11:24:01;;;;;;;2.70;0.50;;;15.70;99.90;;;;;;5066824;28;20483;-54
2021/05/12 11:26:55;;;;;;;0.63;0.40;;;16.00;99.90;;;;;;5066461;28;20016;-54
2021/05/12 11:32:01;;;;;;;0.70;0.47;;;16.30;99.90;;;;;;5066258;28;20023;-54
2021/05/12 11:34:28;;;;;;;0.52;0.47;;;16.40;99.90;;;;;;5065893;28;20024;-54
2021/05/12 11:37:25;;;;;;;0.40;0.32;;;16.30;99.90;;;;;;5066315;28;20020;-54
2021/05/12 11:39:54;;;;;;;0.57;0.40;;;16.30;99.90;;;;;;5061501;28;20090;-55
2021/05/12 11:42:26;;;;;;;0.68;0.45;;;16.30;99.90;;;;;;5064958;28;20045;-54
2021/05/12 11:45:05;;;;;;;1.45;0.40;;;16.40;99.90;;;;;;5064466;28;20118;-54
2021/05/12 11:47:32;;;;;;;2.17;0.75;;;16.40;99.90;;;;;;5065888;28;20020;-55
2021/05/12 11:49:58;;;;;;;0.65;0.38;;;16.30;99.90;;;;;;5066026;28;20107;-55
2021/05/12 11:52:32;;;;;;;0.40;0.40;;;16.20;99.90;;;;;;5066231;28;20586;-55
2021/05/12 11:55:08;;;;;;;0.90;0.50;;;16.40;99.90;;;;;;5065804;28;20039;-55
2021/05/12 11:57:36;;;;;;;0.52;0.40;;;16.40;99.90;;;;;;5065346;28;20076;-54
2021/05/12 12:00:05;;;;;;;1.13;0.50;;;16.50;99.90;;;;;;5065594;28;20530;-54
2021/05/12 12:02:31;;;;;;;0.57;0.30;;;16.70;99.90;;;;;;5065145;28;20016;-54
2021/05/12 12:05:04;;;;;;;0.47;0.40;;;16.60;99.90;;;;;;5065683;28;20530;-53
2021/05/12 12:07:33;;;;;;;1.13;0.50;;;16.80;99.90;;;;;;5065520;28;20058;-55
2021/05/12 12:10:03;;;;;;;0.40;0.40;;;16.80;99.90;;;;;;5065044;28;20028;-55
2021/05/12 12:12:29;;;;;;;0.57;0.40;;;16.70;99.90;;;;;;5064988;28;20028;-54
2021/05/12 12:15:10;;;;;;;0.43;0.40;;;16.70;99.90;;;;;;5065510;28;20086;-54
2021/05/12 12:17:36;;;;;;;0.55;0.50;;;17.00;99.90;;;;;;5065137;28;20028;-56
2021/05/12 12:20:07;;;;;;;0.85;0.20;;;17.30;99.90;;;;;;5065533;28;20582;-54
2021/05/12 12:22:34;;;;;;;0.25;0.25;;;17.50;99.90;;;;;;5065092;28;20064;-54
2021/05/12 12:25:16;;;;;;;1.60;0.47;;;17.80;99.90;;;;;;5065179;28;20028;-54
2021/05/12 12:27:43;;;;;;;0.30;0.30;;;17.70;99.90;;;;;;5065289;28;20139;-54
2021/05/12 12:30:13;;;;;;;0.50;0.43;;;17.80;99.90;;;;;;5065273;28;20028;-54
2021/05/12 12:32:41;;;;;;;1.92;0.68;;;17.80;99.90;;;;;;5065299;28;20028;-55
2021/05/12 12:35:07;;;;;;;2.35;0.70;;;17.70;99.90;;;;;;5064890;28;20028;-55
2021/05/12 12:37:35;;;;;;;0.93;0.50;;;17.40;99.90;;;;;;5064932;28;20059;-54
2021/05/12 12:40:09;;;;;;;1.42;0.50;;;17.30;99.90;;;;;;5065224;28;20027;-53
2021/05/12 12:42:48;;;;;;;0.37;0.37;;;17.60;99.90;;;;;;5064922;28;20021;-54
2021/05/12 12:45:34;;;;;;;1.27;0.40;;;17.60;99.90;;;;;;5065423;28;20320;-54
2021/05/12 12:48:07;;;;;;;2.05;0.60;;;18.00;99.90;;;;;;5065194;28;20051;-55
2021/05/12 12:50:36;;;;;;;1.27;0.45;;;17.80;99.90;;;;;;5065046;28;20041;-55
2021/05/12 12:53:04;;;;;;;1.30;0.60;;;18.00;99.90;;;;;;5065312;28;20025;-55
2021/05/12 12:55:33;;;;;;;1.48;0.77;;;18.40;99.90;;;;;;5064848;28;20028;-54